Time;durP1;ratioP1;P1;durP2;ratioP2;P2;SDS_P1;SDS_P2;PMS_P1;PMS_P2;Temp;Humidity;BMP_temperature;BMP_pressure;BME280_temperature;BME280_humidity;BME280_pressure;Samples;Min_cycle;Max_cycle;Signal;HPM_P1;HPM_P2
2023/03/30 00:00:37;;;;;;;2.42;1.23;;;;;;;19.94;41.08;100491.22;5049851;28;20032;-75
2023/03/30 00:03:02;;;;;;;1.77;1.20;;;;;;;19.87;41.19;100472.22;5056119;28;20025;-75
2023/03/30 00:05:28;;;;;;;2.15;1.33;;;;;;;19.89;41.33;100472.06;5067286;28;20029;-72
2023/03/30 00:07:54;;;;;;;1.92;1.40;;;;;;;19.67;41.40;100431.50;5062416;28;20326;-74
2023/03/30 00:10:20;;;;;;;1.95;1.30;;;;;;;19.65;41.40;100421.91;5054256;28;20060;-74
2023/03/30 00:12:47;;;;;;;2.03;1.27;;;;;;;19.75;41.49;100443.19;5055617;28;20083;-76
2023/03/30 00:15:14;;;;;;;3.40;1.98;;;;;;;19.70;41.08;100446.44;5066004;28;20029;-73
2023/03/30 00:17:40;;;;;;;1.65;1.20;;;;;;;19.88;41.38;100468.53;5062980;28;20033;-74
2023/03/30 00:20:10;;;;;;;2.15;1.30;;;;;;;19.88;41.05;100475.75;5056955;28;20060;-73
2023/03/30 00:22:39;;;;;;;1.83;1.40;;;;;;;19.60;41.33;100424.28;5054495;28;20067;-73
2023/03/30 00:25:09;;;;;;;1.45;1.27;;;;;;;19.86;41.20;100461.63;5050031;28;20040;-76
2023/03/30 00:27:35;;;;;;;1.40;1.20;;;;;;;19.86;41.13;100448.13;5050928;28;20037;-74
2023/03/30 00:30:02;;;;;;;1.73;1.20;;;;;;;19.84;41.29;100451.03;5053945;28;20029;-75
2023/03/30 00:32:27;;;;;;;1.75;1.52;;;;;;;19.84;41.40;100450.19;5051709;28;20592;-75
2023/03/30 00:34:52;;;;;;;1.83;1.52;;;;;;;19.76;41.26;100440.31;5052951;28;20081;-74
2023/03/30 00:37:18;;;;;;;2.00;1.45;;;;;;;19.44;41.41;100385.66;5054493;28;20037;-74
2023/03/30 00:39:44;;;;;;;2.05;1.45;;;;;;;19.79;41.28;100439.09;5053119;28;20060;-75
2023/03/30 00:42:15;;;;;;;1.48;1.10;;;;;;;19.80;41.46;100433.53;5049545;28;20022;-73
2023/03/30 00:45:09;;;;;;;2.15;1.42;;;;;;;19.79;41.31;100406.72;5051352;28;20025;-73
2023/03/30 00:47:38;;;;;;;1.50;1.10;;;;;;;19.79;41.48;100412.13;5052672;28;20035;-74
2023/03/30 00:50:04;;;;;;;2.35;1.40;;;;;;;19.78;41.28;100411.28;5051926;28;20097;-74
2023/03/30 00:52:31;;;;;;;2.53;1.40;;;;;;;19.78;41.48;100410.47;5050590;28;20028;-75
2023/03/30 00:54:57;;;;;;;2.08;1.30;;;;;;;19.58;41.10;100377.78;5052922;28;20029;-75
2023/03/30 00:57:24;;;;;;;2.17;1.48;;;;;;;19.70;41.23;100403.28;5062247;28;20021;-75
2023/03/30 00:59:51;;;;;;;2.00;1.30;;;;;;;19.70;41.38;100405.97;5051031;28;20026;-76
2023/03/30 01:02:17;;;;;;;1.90;1.40;;;;;;;19.75;41.34;100405.44;5060528;28;20033;-76
2023/03/30 01:04:44;;;;;;;2.35;1.48;;;;;;;19.54;41.28;100392.66;5054578;28;20083;-76
2023/03/30 01:07:13;;;;;;;1.92;1.52;;;;;;;19.46;41.33;100386.34;5054833;28;20029;-74
2023/03/30 01:09:39;;;;;;;2.92;1.58;;;;;;;19.73;41.34;100422.63;5047437;28;20046;-74
2023/03/30 01:12:05;;;;;;;2.08;1.27;;;;;;;19.73;41.52;100417.25;5055238;28;20025;-74
2023/03/30 01:14:31;;;;;;;2.60;1.40;;;;;;;19.73;41.00;100425.34;5049656;28;20092;-75
2023/03/30 01:17:03;;;;;;;1.75;1.30;;;;;;;19.68;41.52;100413.44;5052612;28;20034;-74
2023/03/30 01:19:53;;;;;;;1.90;1.55;;;;;;;19.70;41.42;100403.28;5058453;28;20478;-73
2023/03/30 01:22:40;;;;;;;2.00;1.42;;;;;;;19.70;41.13;100404.13;5053158;28;20033;-74
2023/03/30 01:25:30;;;;;;;2.25;1.70;;;;;;;19.69;41.35;100401.63;5048839;28;20026;-74
2023/03/30 01:28:21;;;;;;;1.95;1.38;;;;;;;19.67;41.42;100401.81;5055616;28;20118;-75
2023/03/30 01:31:13;;;;;;;1.23;1.00;;;;;;;19.67;41.41;100395.59;5057065;28;20021;-73
2023/03/30 01:33:44;;;;;;;1.50;1.15;;;;;;;19.65;41.30;100381.44;5051160;28;20025;-73
2023/03/30 01:36:33;;;;;;;1.58;1.25;;;;;;;19.64;41.32;100382.47;5060733;28;20025;-74
2023/03/30 01:39:20;;;;;;;1.63;1.23;;;;;;;19.63;41.21;100370.03;5059374;28;20033;-74
2023/03/30 01:41:53;;;;;;;2.15;1.40;;;;;;;19.62;41.37;100373.72;5053564;28;20035;-74
2023/03/30 01:44:27;;;;;;;2.20;1.40;;;;;;;19.61;41.34;100378.28;5052788;28;20029;-75
2023/03/30 01:47:28;;;;;;;2.65;1.88;;;;;;;19.41;41.53;100352.84;5057326;28;20029;-74
2023/03/30 01:50:16;;;;;;;1.90;1.40;;;;;;;19.41;41.31;100366.31;5070473;28;20116;-74
2023/03/30 01:52:52;;;;;;;1.52;1.23;;;;;;;19.50;41.24;100359.84;5047050;28;20072;-74
2023/03/30 01:55:39;;;;;;;2.15;1.52;;;;;;;19.59;41.35;100388.41;5062377;28;20025;-74
2023/03/30 01:58:23;;;;;;;1.55;1.13;;;;;;;19.58;41.59;100396.66;5055775;28;20022;-74
2023/03/30 02:00:49;;;;;;;1.45;1.00;;;;;;;19.57;41.60;100389.59;5065242;28;20067;-74
2023/03/30 02:03:30;;;;;;;2.42;1.63;;;;;;;19.57;41.52;100392.28;5065021;28;20029;-74
2023/03/30 02:05:59;;;;;;;1.67;1.20;;;;;;;19.56;41.53;100399.53;5073549;28;20021;-74
2023/03/30 02:08:27;;;;;;;2.45;1.80;;;;;;;19.55;41.18;100395.19;5068216;28;20109;-74
2023/03/30 02:10:54;;;;;;;5.13;1.30;;;;;;;19.48;41.36;100383.44;5059036;28;20040;-74
2023/03/30 02:13:20;;;;;;;2.45;1.40;;;;;;;19.55;41.40;100400.56;5062549;28;20045;-74
2023/03/30 02:15:48;;;;;;;3.05;1.40;;;;;;;19.54;41.71;100384.56;5054516;28;20033;-73
2023/03/30 02:18:14;;;;;;;2.00;1.25;;;;;;;19.35;41.46;100345.50;5051242;28;20058;-75
2023/03/30 02:20:39;;;;;;;3.72;1.90;;;;;;;19.36;41.30;100358.81;5047668;28;20097;-73
2023/03/30 02:23:05;;;;;;;2.78;1.40;;;;;;;19.33;41.32;100340.31;5047488;28;20069;-75
2023/03/30 02:25:32;;;;;;;2.47;1.42;;;;;;;19.49;41.55;100358.97;5053170;28;20060;-74
2023/03/30 02:27:57;;;;;;;1.60;1.13;;;;;;;19.42;41.00;100341.91;5048995;28;20033;-75
2023/03/30 02:30:23;;;;;;;3.33;1.45;;;;;;;19.32;41.31;100318.91;5059236;28;20033;-75
2023/03/30 02:32:52;;;;;;;1.98;1.20;;;;;;;19.50;41.71;100338.28;5062320;28;20061;-75
2023/03/30 02:35:36;;;;;;;;;;;;;;;19.51;41.50;100333.72;5069912;28;20032;-75
2023/03/30 02:38:37;;;;;;;1.35;1.17;;;;;;;19.49;41.46;100341.97;5048611;28;19913;-73
2023/03/30 02:41:07;;;;;;;2.30;1.35;;;;;;;19.48;41.24;100343.84;5047757;28;20033;-74
2023/03/30 02:44:02;;;;;;;1.83;1.30;;;;;;;19.43;41.55;100346.25;5066473;28;20036;-74
2023/03/30 02:46:58;;;;;;;1.77;1.27;;;;;;;19.45;41.58;100354.16;5046882;28;20041;-75
2023/03/30 02:49:36;;;;;;;1.75;1.05;;;;;;;19.45;41.44;100356.84;5058949;28;20148;-75
2023/03/30 02:52:17;;;;;;;1.85;1.30;;;;;;;19.45;41.39;100356.84;5055121;28;20041;-74
2023/03/30 02:54:54;;;;;;;1.80;1.40;;;;;;;19.44;41.48;100355.19;5048569;28;20041;-73
2023/03/30 02:57:31;;;;;;;2.03;1.23;;;;;;;19.27;41.49;100337.50;5035993;28;20035;-74
2023/03/30 03:00:12;;;;;;;1.38;1.20;;;;;;;19.43;41.77;100350.81;5050598;28;20021;-74
2023/03/30 03:02:41;;;;;;;1.15;1.02;;;;;;;19.41;41.62;100356.41;5065087;28;20032;-73
2023/03/30 03:05:07;;;;;;;2.13;1.90;;;;;;;19.42;41.56;100365.34;5046643;28;20056;-73
2023/03/30 03:07:33;;;;;;;1.88;1.25;;;;;;;19.23;41.32;100348.66;5067250;28;20021;-74
2023/03/30 03:09:59;;;;;;;1.35;1.10;;;;;;;19.40;41.36;100376.28;5047427;28;20026;-75
2023/03/30 03:12:27;;;;;;;2.10;1.50;;;;;;;19.40;41.30;100378.97;5061494;28;20389;-74
2023/03/30 03:14:52;;;;;;;4.73;1.33;;;;;;;19.24;41.59;100349.50;5048805;28;20055;-73
2023/03/30 03:17:21;;;;;;;1.50;1.05;;;;;;;19.38;41.73;100378.34;5049868;28;20036;-74
2023/03/30 03:19:47;;;;;;;1.90;1.45;;;;;;;19.05;41.29;100329.31;5046823;28;20026;-74
2023/03/30 03:22:12;;;;;;;2.00;1.30;;;;;;;19.37;41.51;100376.66;5061110;28;20036;-74
2023/03/30 03:24:38;;;;;;;2.05;1.65;;;;;;;19.37;41.50;100379.38;5054510;28;20029;-74
2023/03/30 03:27:03;;;;;;;2.17;1.13;;;;;;;19.20;41.31;100356.31;5051013;28;20029;-75
2023/03/30 03:29:28;;;;;;;1.40;1.30;;;;;;;19.35;41.65;100377.88;5047207;28;20017;-75
2023/03/30 03:31:54;;;;;;;1.50;1.30;;;;;;;19.34;41.59;100376.19;5050813;28;20107;-74
2023/03/30 03:34:19;;;;;;;1.40;1.27;;;;;;;18.63;41.42;100257.13;5055712;28;20063;-74
2023/03/30 03:36:44;;;;;;;1.83;1.50;;;;;;;19.33;41.67;100367.28;5051364;28;20033;-74
2023/03/30 03:39:10;;;;;;;1.15;1.02;;;;;;;19.32;41.71;100360.19;5049837;28;20025;-76
2023/03/30 03:41:35;;;;;;;2.30;1.40;;;;;;;19.28;41.38;100344.56;5060476;28;20512;-75
2023/03/30 03:44:01;;;;;;;1.45;1.20;;;;;;;19.32;41.80;100346.72;5059397;28;20041;-74
2023/03/30 03:46:26;;;;;;;2.15;1.40;;;;;;;19.24;41.50;100322.53;5054274;28;20036;-75
2023/03/30 03:48:51;;;;;;;2.15;1.15;;;;;;;19.31;41.41;100328.03;5051965;28;20033;-74
2023/03/30 03:51:17;;;;;;;2.28;1.20;;;;;;;19.30;41.29;100329.06;5063585;28;20025;-74
2023/03/30 03:53:42;;;;;;;2.03;1.17;;;;;;;19.20;41.85;100314.00;5059838;28;20037;-74
2023/03/30 03:56:07;;;;;;;1.55;1.30;;;;;;;19.29;41.43;100317.47;5053864;28;20285;-73
2023/03/30 03:58:32;;;;;;;1.67;1.40;;;;;;;19.07;41.71;100280.63;5052415;28;20032;-73
2023/03/30 04:00:59;;;;;;;1.63;1.10;;;;;;;19.28;41.40;100312.22;5060685;28;20037;-74
2023/03/30 04:03:24;;;;;;;1.63;1.10;;;;;;;19.28;41.72;100320.31;5056574;28;20026;-75
2023/03/30 04:05:50;;;;;;;1.75;1.20;;;;;;;19.27;41.30;100326.72;5050137;28;20117;-74
2023/03/30 04:08:16;;;;;;;1.77;1.20;;;;;;;19.26;41.54;100331.28;5052852;28;20482;-74
2023/03/30 04:10:42;;;;;;;2.25;1.25;;;;;;;19.26;41.58;100327.75;5059945;28;20045;-76
2023/03/30 04:13:07;;;;;;;1.52;1.20;;;;;;;19.26;41.49;100320.50;5053225;28;20024;-75
2023/03/30 04:15:34;;;;;;;1.90;1.30;;;;;;;19.25;41.75;100316.16;5060101;28;20086;-74
2023/03/30 04:18:00;;;;;;;2.17;1.63;;;;;;;18.98;41.60;100271.78;5067731;28;20073;-73
2023/03/30 04:20:27;;;;;;;2.20;1.33;;;;;;;19.25;41.81;100316.16;5056695;28;20094;-73
2023/03/30 04:22:53;;;;;;;2.30;1.23;;;;;;;19.21;41.77;100317.53;5054755;28;20033;-72
2023/03/30 04:25:20;;;;;;;2.10;1.50;;;;;;;19.26;41.58;100333.16;5050372;28;20297;-73
2023/03/30 04:27:49;;;;;;;1.50;1.20;;;;;;;19.25;41.97;100331.50;5055914;28;20029;-73
2023/03/30 04:30:16;;;;;;;1.58;1.20;;;;;;;19.26;41.61;100322.38;5052901;28;20018;-74
2023/03/30 04:32:43;;;;;;;1.92;1.63;;;;;;;19.24;41.79;100314.44;5048736;28;20045;-74
2023/03/30 04:35:09;;;;;;;2.15;1.38;;;;;;;19.00;41.79;100269.75;5056030;28;20037;-74
2023/03/30 04:37:37;;;;;;;3.03;1.80;;;;;;;19.26;41.99;100325.06;5067259;28;20026;-73
2023/03/30 04:40:08;;;;;;;1.48;1.17;;;;;;;19.25;42.08;100316.16;5068039;28;20069;-72
2023/03/30 04:42:36;;;;;;;2.30;1.45;;;;;;;19.08;42.43;100276.94;5066566;28;20036;-73
2023/03/30 04:45:06;;;;;;;2.60;1.00;;;;;;;19.25;42.12;100312.63;5067152;28;20036;-73
2023/03/30 04:47:32;;;;;;;2.35;1.40;;;;;;;19.26;42.25;100311.59;5055044;28;20033;-72
2023/03/30 04:49:58;;;;;;;2.35;1.15;;;;;;;19.13;42.54;100283.44;5057290;28;20017;-74
2023/03/30 04:52:23;;;;;;;1.67;1.20;;;;;;;19.26;42.63;100308.91;5059994;28;20054;-71
2023/03/30 04:54:49;;;;;;;2.33;1.20;;;;;;;19.23;42.40;100305.53;5056793;28;20048;-71
2023/03/30 04:57:14;;;;;;;2.30;1.42;;;;;;;18.90;42.63;100261.97;5053756;28;20038;-72
2023/03/30 04:59:40;;;;;;;1.88;1.52;;;;;;;19.22;42.81;100311.13;5056502;28;20033;-72
2023/03/30 05:02:06;;;;;;;2.55;1.25;;;;;;;18.53;42.82;100194.66;5059132;28;20064;-73
2023/03/30 05:04:31;;;;;;;2.10;1.48;;;;;;;19.19;43.16;100295.31;5060145;28;20042;-75
2023/03/30 05:06:57;;;;;;;3.03;1.27;;;;;;;19.09;43.31;100286.69;5062288;28;20021;-74
2023/03/30 05:09:22;;;;;;;3.00;1.52;;;;;;;19.25;43.29;100307.22;5049869;28;20049;-75
2023/03/30 05:11:48;;;;;;;2.03;1.60;;;;;;;18.76;43.17;100224.22;5053561;28;21016;-75
2023/03/30 05:14:14;;;;;;;1.77;1.23;;;;;;;19.10;43.43;100288.34;5048792;28;20070;-75
2023/03/30 05:16:39;;;;;;;2.20;1.35;;;;;;;19.01;43.26;100266.03;5052556;28;20505;-75
2023/03/30 05:19:04;;;;;;;4.32;1.48;;;;;;;19.24;43.24;100306.38;5057952;28;20098;-72
2023/03/30 05:21:32;;;;;;;2.35;1.08;;;;;;;19.05;43.26;100272.72;5058617;28;20025;-73
2023/03/30 05:23:58;;;;;;;2.90;1.48;;;;;;;18.99;43.32;100260.03;5054282;28;20021;-76
2023/03/30 05:26:23;;;;;;;2.20;1.30;;;;;;;18.86;43.25;100255.28;5059235;28;20552;-75
2023/03/30 05:28:49;;;;;;;2.50;1.17;;;;;;;19.27;43.56;100311.41;5069872;28;20025;-76
2023/03/30 05:31:15;;;;;;;1.85;1.05;;;;;;;19.27;43.24;100311.41;5054995;28;20040;-73
2023/03/30 05:33:40;;;;;;;2.50;1.40;;;;;;;18.95;43.79;100256.03;5058974;28;20690;-74
2023/03/30 05:36:05;;;;;;;2.40;1.35;;;;;;;19.28;43.61;100313.06;5060737;28;20025;-73
2023/03/30 05:38:31;;;;;;;3.20;1.60;;;;;;;18.87;43.51;100242.63;5059070;28;20017;-74
2023/03/30 05:40:57;;;;;;;3.33;1.50;;;;;;;18.76;43.69;100210.75;5059169;28;20032;-77
2023/03/30 05:43:22;;;;;;;4.22;1.50;;;;;;;19.30;43.71;100310.19;5059975;28;20017;-74
2023/03/30 05:45:48;;;;;;;2.50;1.23;;;;;;;19.11;43.81;100271.97;5060953;28;20036;-75
2023/03/30 05:48:13;;;;;;;5.18;1.27;;;;;;;18.78;43.54;100216.81;5045160;28;20083;-75
2023/03/30 05:50:38;;;;;;;1.83;1.10;;;;;;;19.30;43.34;100305.66;5055536;28;20083;-72
2023/03/30 05:53:04;;;;;;;4.97;1.58;;;;;;;19.11;43.71;100281.94;5050901;28;20029;-79
2023/03/30 05:55:29;;;;;;;1.42;1.15;;;;;;;19.06;43.68;100268.19;5062794;28;20032;-75
2023/03/30 05:57:55;;;;;;;2.63;1.40;;;;;;;19.09;43.56;100271.34;5054267;28;20060;-79
2023/03/30 06:00:21;;;;;;;2.58;1.35;;;;;;;19.31;43.86;100295.69;5049734;28;20029;-78
2023/03/30 06:02:47;;;;;;;1.60;1.23;;;;;;;19.26;43.41;100293.56;5059652;28;20035;-81
2023/03/30 06:05:13;;;;;;;2.05;1.10;;;;;;;19.30;43.70;100300.25;5059427;28;20025;-78
2023/03/30 06:07:38;;;;;;;2.58;1.30;;;;;;;19.32;43.31;100317.06;5053510;28;20065;-81
2023/03/30 06:10:05;;;;;;;3.95;1.10;;;;;;;19.27;43.44;100315.94;5054222;28;20051;-77
2023/03/30 06:12:31;;;;;;;1.67;1.30;;;;;;;19.31;43.48;100315.41;5050063;28;20032;-78
2023/03/30 06:14:56;;;;;;;1.13;1.00;;;;;;;19.21;43.25;100299.50;5055269;28;20088;-74
2023/03/30 06:17:21;;;;;;;1.95;1.23;;;;;;;19.21;43.58;100301.38;5054828;28;20030;-77
2023/03/30 06:19:47;;;;;;;2.13;1.30;;;;;;;19.04;43.27;100276.47;5046179;28;20052;-79
2023/03/30 06:22:12;;;;;;;2.45;1.17;;;;;;;19.08;43.09;100285.00;5051803;28;20028;-79
2023/03/30 06:24:37;;;;;;;1.58;1.15;;;;;;;19.29;43.05;100316.63;5072794;28;20051;-80
2023/03/30 06:27:03;;;;;;;2.53;1.48;;;;;;;19.23;43.63;100316.31;5053043;28;20033;-81
2023/03/30 06:29:28;;;;;;;3.47;1.45;;;;;;;19.29;43.16;100317.47;5071897;28;20055;-80
2023/03/30 06:31:54;;;;;;;1.52;1.20;;;;;;;19.05;43.19;100291.59;5050686;28;20056;-80
2023/03/30 06:34:19;;;;;;;1.98;1.48;;;;;;;19.29;43.43;100336.31;5055513;28;20040;-81
2023/03/30 06:36:45;;;;;;;3.20;1.55;;;;;;;19.28;43.32;100342.72;5048485;28;20025;-80
2023/03/30 06:39:11;;;;;;;1.95;1.10;;;;;;;19.29;43.33;100340.88;5059775;28;20025;-79
2023/03/30 06:41:36;;;;;;;1.92;1.40;;;;;;;19.25;43.12;100342.28;5050756;28;20056;-77
2023/03/30 06:44:02;;;;;;;3.75;1.40;;;;;;;18.51;43.61;100224.41;5053001;28;20769;-79
2023/03/30 06:46:27;;;;;;;3.58;1.38;;;;;;;19.07;43.45;100319.19;5053023;28;20048;-79
2023/03/30 06:48:53;;;;;;;2.75;1.42;;;;;;;19.01;43.30;100313.69;5054346;28;20043;-78
2023/03/30 06:51:18;;;;;;;1.50;1.00;;;;;;;19.12;43.32;100326.72;5053194;28;20019;-81
2023/03/30 06:53:44;;;;;;;2.63;1.45;;;;;;;19.10;43.47;100321.50;5053998;28;20036;-85
2023/03/30 06:56:10;;;;;;;2.22;1.17;;;;;;;19.19;43.26;100338.44;5050275;28;20084;-81
2023/03/30 06:58:35;;;;;;;2.40;1.50;;;;;;;18.98;43.37;100304.94;5049799;28;20048;-80
2023/03/30 07:01:09;;;;;;;2.58;1.40;;;;;;;19.25;43.25;100358.44;5051464;28;20033;-81
2023/03/30 07:03:34;;;;;;;2.75;1.40;;;;;;;19.03;43.48;100327.81;5058180;28;20056;-81
2023/03/30 07:05:59;;;;;;;5.18;1.65;;;;;;;19.08;43.47;100338.91;5053536;28;20033;-83
2023/03/30 07:08:24;;;;;;;3.28;1.08;;;;;;;19.12;43.70;100341.03;5052952;28;20049;-81
2023/03/30 07:10:50;;;;;;;2.53;1.45;;;;;;;19.23;43.45;100364.81;5051761;28;20013;-80
2023/03/30 07:13:16;;;;;;;3.58;1.33;;;;;;;19.02;43.58;100340.44;5067110;28;20092;-80
2023/03/30 07:15:41;;;;;;;5.90;2.33;;;;;;;19.07;43.27;100347.97;5054424;28;20048;-81
2023/03/30 07:18:07;;;;;;;2.95;1.20;;;;;;;19.01;43.31;100346.88;5060011;28;20442;-81
2023/03/30 07:20:32;;;;;;;2.85;1.23;;;;;;;19.09;43.57;100337.88;5047705;28;20430;-78
2023/03/30 07:22:57;;;;;;;2.05;1.33;;;;;;;18.69;43.35;100286.00;5049273;28;20089;-77
2023/03/30 07:25:23;;;;;;;3.88;1.92;;;;;;;19.08;43.42;100349.69;5053118;28;20036;-76
2023/03/30 07:27:48;;;;;;;2.65;1.15;;;;;;;19.12;43.44;100354.50;5047735;28;20033;-77
2023/03/30 07:30:14;;;;;;;3.25;1.40;;;;;;;19.26;43.57;100376.28;5047924;28;20081;-77
2023/03/30 07:32:39;;;;;;;3.72;1.70;;;;;;;18.92;43.43;100343.41;5056091;28;20029;-77
2023/03/30 07:35:05;;;;;;;3.22;1.45;;;;;;;19.18;43.54;100367.25;5055700;28;20021;-75
2023/03/30 07:37:30;;;;;;;2.42;1.20;;;;;;;19.28;43.34;100382.31;5057067;28;20025;-76
2023/03/30 07:39:56;;;;;;;4.20;1.65;;;;;;;19.14;43.34;100370.50;5049737;28;20113;-77
2023/03/30 07:42:21;;;;;;;4.15;1.67;;;;;;;18.82;43.19;100315.03;5056222;28;20497;-76
2023/03/30 07:44:47;;;;;;;3.95;1.70;;;;;;;19.26;43.19;100381.66;5049542;28;20025;-76
2023/03/30 07:47:12;;;;;;;3.08;1.40;;;;;;;19.25;43.29;100388.91;5058109;28;20025;-75
2023/03/30 07:49:37;;;;;;;3.60;1.83;;;;;;;19.03;43.41;100354.75;5048567;28;20025;-77
2023/03/30 07:52:03;;;;;;;5.07;1.70;;;;;;;19.28;43.74;100391.22;5054984;28;20025;-77
2023/03/30 07:54:28;;;;;;;3.45;1.38;;;;;;;19.21;43.92;100399.22;5049340;28;20045;-76
2023/03/30 07:56:53;;;;;;;5.85;1.83;;;;;;;19.30;43.40;100408.06;5048868;28;20033;-78
2023/03/30 07:59:19;;;;;;;2.78;1.17;;;;;;;19.27;43.57;100394.13;5056683;28;20033;-79
2023/03/30 08:01:45;;;;;;;3.08;1.60;;;;;;;19.31;43.26;100401.66;5054927;28;20033;-76
2023/03/30 08:04:11;;;;;;;3.25;1.70;;;;;;;19.31;43.72;100423.22;5048719;28;20025;-73
2023/03/30 08:06:37;;;;;;;5.18;2.08;;;;;;;19.03;44.00;100387.09;5049840;28;20028;-80
2023/03/30 08:09:03;;;;;;;3.30;1.88;;;;;;;19.17;43.59;100389.81;5071150;28;20045;-78
2023/03/30 08:11:28;;;;;;;4.95;1.88;;;;;;;19.34;43.97;100425.56;5054011;28;20049;-74
2023/03/30 08:13:54;;;;;;;3.53;1.50;;;;;;;19.21;43.78;100399.22;5058109;28;20029;-74
2023/03/30 08:16:19;;;;;;;4.10;2.03;;;;;;;19.38;44.08;100424.16;5047877;28;20018;-74
2023/03/30 08:18:46;;;;;;;7.53;1.95;;;;;;;19.26;43.87;100409.47;5056758;28;20020;-76
2023/03/30 08:21:11;;;;;;;3.67;1.70;;;;;;;19.21;43.97;100390.31;5050649;28;20031;-78
2023/03/30 08:23:37;;;;;;;6.25;1.88;;;;;;;19.43;43.54;100431.69;5055649;28;20014;-77
2023/03/30 08:26:02;;;;;;;5.30;2.10;;;;;;;19.17;43.69;100378.22;5057189;28;20017;-76
2023/03/30 08:28:27;;;;;;;4.60;1.73;;;;;;;19.35;43.92;100408.34;5059163;28;20076;-73
2023/03/30 08:30:53;;;;;;;5.38;2.08;;;;;;;19.47;43.51;100428.44;5062222;28;20070;-78
2023/03/30 08:33:19;;;;;;;7.95;1.88;;;;;;;19.41;43.17;100423.81;5070082;28;20737;-81
2023/03/30 08:35:45;;;;;;;5.18;1.77;;;;;;;19.51;43.60;100423.53;5053959;28;20921;-79
2023/03/30 08:38:11;;;;;;;5.97;2.17;;;;;;;19.31;43.23;100392.72;5057750;28;20029;-83
2023/03/30 08:40:40;;;;;;;4.30;2.10;;;;;;;19.54;43.29;100427.69;5046528;28;20025;-80
2023/03/30 08:43:25;;;;;;;6.50;1.95;;;;;;;19.29;43.35;100389.41;5055215;28;20032;-78
2023/03/30 08:45:51;;;;;;;4.13;1.80;;;;;;;19.08;43.31;100350.50;5073996;28;20029;-82
2023/03/30 08:48:18;;;;;;;3.22;1.50;;;;;;;19.34;43.08;100405.84;5056739;28;20032;-81
2023/03/30 08:50:57;;;;;;;4.32;1.70;;;;;;;19.59;43.42;100439.63;5066618;28;20025;-82
2023/03/30 08:53:22;;;;;;;3.15;1.23;;;;;;;19.60;43.11;100432.38;5053486;28;20017;-79
2023/03/30 08:56:09;;;;;;;6.57;1.95;;;;;;;19.45;43.33;100410.78;5054213;28;20048;-79
2023/03/30 08:58:46;;;;;;;5.30;1.70;;;;;;;19.61;43.10;100440.31;5053821;28;20044;-82
2023/03/30 09:01:22;;;;;;;3.97;1.63;;;;;;;19.63;43.15;100440.97;5055027;28;20095;-81
2023/03/30 09:04:06;;;;;;;4.03;1.73;;;;;;;19.62;42.98;100433.88;5060136;28;20037;-78
2023/03/30 09:06:52;;;;;;;3.40;1.63;;;;;;;19.48;42.85;100419.34;5056972;28;20132;-82
2023/03/30 09:09:20;;;;;;;3.92;1.80;;;;;;;19.33;42.99;100402.31;5044127;28;20072;-78
2023/03/30 09:11:49;;;;;;;3.92;1.65;;;;;;;19.09;43.25;100373.72;5070829;28;20045;-81
2023/03/30 09:14:18;;;;;;;;;;;;;;;19.68;42.90;100453.91;5057529;28;20030;-87
2023/03/30 09:16:59;;;;;;;4.03;1.73;;;;;;;19.69;43.19;100466.34;5064565;28;19913;-80
2023/03/30 09:19:31;;;;;;;4.95;2.15;;;;;;;19.64;43.09;100455.28;5056044;28;20037;-81
2023/03/30 09:21:59;;;;;;;5.28;2.00;;;;;;;19.34;43.20;100395.91;5068080;28;20032;-80
2023/03/30 09:24:26;;;;;;;4.05;2.08;;;;;;;19.74;42.92;100466.63;5055885;28;20024;-78
2023/03/30 09:26:56;;;;;;;6.35;1.98;;;;;;;18.99;42.68;100343.53;5055689;28;20028;-86
2023/03/30 09:29:33;;;;;;;5.47;2.13;;;;;;;19.58;42.85;100437.97;5053369;28;20107;-82
2023/03/30 09:32:20;;;;;;;3.42;1.95;;;;;;;19.80;42.84;100474.00;5055874;28;20036;-84
2023/03/30 09:34:54;;;;;;;6.60;2.35;;;;;;;19.59;42.93;100438.78;5051563;28;20024;-85
2023/03/30 09:37:21;;;;;;;6.13;2.00;;;;;;;19.80;42.91;100483.97;5059113;28;20052;-84
2023/03/30 09:39:47;;;;;;;6.57;1.90;;;;;;;19.60;42.84;100462.03;5051959;28;20112;-84
2023/03/30 09:42:36;;;;;;;5.82;2.30;;;;;;;19.81;43.14;100489.16;5050686;28;20024;-88
2023/03/30 09:45:13;;;;;;;3.50;1.80;;;;;;;19.83;42.94;100487.09;5051466;28;20044;-84
2023/03/30 09:47:41;;;;;;;4.45;1.77;;;;;;;19.67;42.87;100450.38;5059748;28;20247;-81
2023/03/30 09:50:07;;;;;;;6.68;2.55;;;;;;;19.87;42.58;100474.09;5050327;28;20023;-81
2023/03/30 09:53:11;;;;;;;7.80;2.00;;;;;;;19.88;42.99;100476.63;5057229;28;20025;-82
2023/03/30 09:55:37;;;;;;;4.13;1.85;;;;;;;19.69;42.84;100442.06;5056481;28;20029;-81
2023/03/30 09:58:13;;;;;;;6.80;2.10;;;;;;;19.94;43.01;100480.41;5052563;28;20029;-74
2023/03/30 10:00:39;;;;;;;5.38;1.90;;;;;;;19.98;42.77;100479.84;5048748;28;20061;-74
2023/03/30 10:03:06;;;;;;;8.35;2.30;;;;;;;19.76;42.97;100442.19;5054397;28;20418;-74
2023/03/30 10:05:33;;;;;;;5.18;2.15;;;;;;;20.04;42.95;100489.06;5053778;28;20085;-74
2023/03/30 10:08:02;;;;;;;8.77;2.20;;;;;;;19.83;42.73;100453.88;5058369;28;20540;-73
2023/03/30 10:10:33;;;;;;;5.13;1.73;;;;;;;19.98;42.74;100474.47;5068754;28;20027;-74
2023/03/30 10:13:07;;;;;;;6.95;2.00;;;;;;;20.13;42.82;100490.63;5073403;28;20036;-73
2023/03/30 10:15:37;;;;;;;5.57;2.10;;;;;;;20.16;42.78;100492.13;5068051;28;20101;-73
2023/03/30 10:18:17;;;;;;;8.00;1.95;;;;;;;20.18;42.70;100498.19;5058211;28;20124;-73
2023/03/30 10:20:50;;;;;;;7.88;2.25;;;;;;;20.22;42.75;100504.91;5055141;28;20017;-78
2023/03/30 10:23:17;;;;;;;8.27;2.72;;;;;;;19.96;43.19;100457.63;5050457;28;20029;-76
2023/03/30 10:25:45;;;;;;;5.28;2.53;;;;;;;20.01;42.93;100467.00;5057922;28;20052;-73
2023/03/30 10:28:26;;;;;;;6.35;2.35;;;;;;;20.29;43.02;100494.19;5059111;28;20028;-74
2023/03/30 10:30:54;;;;;;;7.75;2.33;;;;;;;20.09;42.65;100466.91;5047362;28;20028;-77
2023/03/30 10:33:20;;;;;;;7.18;2.78;;;;;;;20.12;42.95;100467.38;5041508;28;20035;-76
2023/03/30 10:35:46;;;;;;;8.23;2.70;;;;;;;20.39;42.50;100506.38;5057134;28;20029;-76
2023/03/30 10:38:12;;;;;;;7.90;2.35;;;;;;;20.25;42.64;100482.06;5048997;28;20048;-76
2023/03/30 10:40:40;;;;;;;6.88;2.67;;;;;;;20.46;42.57;100511.84;5067582;28;20041;-77
2023/03/30 10:43:14;;;;;;;8.13;3.28;;;;;;;20.35;42.83;100494.28;5053298;28;20037;-74
2023/03/30 10:45:44;;;;;;;5.18;2.83;;;;;;;20.55;42.27;100512.59;5035977;28;20037;-75
2023/03/30 10:48:32;;;;;;;5.35;1.95;;;;;;;20.59;42.61;100519.31;5068642;28;20032;-74
2023/03/30 10:51:08;;;;;;;5.97;2.35;;;;;;;20.63;42.52;100509.78;5053688;28;20029;-76
2023/03/30 10:53:42;;;;;;;8.52;3.08;;;;;;;20.68;42.13;100512.75;5051066;28;20057;-75
2023/03/30 10:56:17;;;;;;;8.40;2.25;;;;;;;20.69;42.19;100509.88;5059210;28;20096;-75
2023/03/30 10:59:21;;;;;;;6.90;2.42;;;;;;;20.77;41.81;100518.88;5054570;28;20058;-73
2023/03/30 11:02:05;;;;;;;5.07;1.88;;;;;;;20.80;41.83;100516.66;5020994;28;20041;-74
2023/03/30 11:04:37;;;;;;;8.15;2.35;;;;;;;20.77;41.88;100510.78;5020888;28;20462;-75
2023/03/30 11:07:04;;;;;;;6.10;2.53;;;;;;;20.67;41.74;100481.38;5004581;28;20057;-76
2023/03/30 11:09:34;;;;;;;11.48;3.80;;;;;;;20.84;42.10;100504.44;5004279;28;20062;-76
2023/03/30 11:12:07;;;;;;;11.10;2.60;;;;;;;20.70;41.68;100481.84;5004899;28;20076;-76
2023/03/30 11:14:45;;;;;;;6.90;2.90;;;;;;;20.90;41.92;100514.50;5004897;28;20034;-78
2023/03/30 11:17:36;;;;;;;5.97;2.43;;;;;;;20.75;41.83;100494.78;5003481;28;20101;-78
2023/03/30 11:20:26;;;;;;;7.63;2.30;;;;;;;20.93;41.81;100515.97;5019657;28;20061;-76
2023/03/30 11:23:05;;;;;;;7.45;2.63;;;;;;;20.93;41.44;100518.66;5004498;28;20057;-75
2023/03/30 11:25:40;;;;;;;10.02;3.20;;;;;;;20.70;41.77;100486.41;5004793;28;20042;-75
2023/03/30 11:28:22;;;;;;;7.65;2.50;;;;;;;20.93;41.46;100522.19;5020819;28;20029;-76
2023/03/30 11:30:50;;;;;;;5.05;2.50;;;;;;;20.96;41.43;100529.94;4977855;28;20025;-78
2023/03/30 11:33:47;;;;;;;8.77;3.08;;;;;;;20.99;41.29;100519.78;5002051;28;20034;-77
2023/03/30 11:36:19;;;;;;;6.22;2.20;;;;;;;21.08;41.12;100516.75;5038788;28;20037;-79
2023/03/30 11:38:53;;;;;;;9.15;2.55;;;;;;;21.11;40.96;100516.38;5051117;28;20036;-80